Time;durP1;ratioP1;P1;durP2;ratioP2;P2;SDS_P1;SDS_P2;PMS_P1;PMS_P2;Temp;Humidity;BMP_temperature;BMP_pressure;BME280_temperature;BME280_humidity;BME280_pressure;Samples;Min_cycle;Max_cycle;Signal;HPM_P1;HPM_P2
2021/10/29 00:02:05;;;;;;;108.03;39.00;;;5.80;99.90;;;;;;5075840;28;20221;-77
2021/10/29 00:04:32;;;;;;;157.13;40.28;;;5.80;99.90;;;;;;5080991;28;20296;-77
2021/10/29 00:06:59;;;;;;;120.40;38.92;;;5.90;99.90;;;;;;5097409;28;20231;-77
2021/10/29 00:09:26;;;;;;;127.15;39.80;;;5.90;99.90;;;;;;5093821;28;20206;-78
2021/10/29 00:11:52;;;;;;;79.30;32.75;;;5.90;99.90;;;;;;5075332;28;20248;-78
2021/10/29 00:14:19;;;;;;;138.20;34.17;;;5.90;99.90;;;;;;5077969;28;20232;-78
2021/10/29 00:16:47;;;;;;;180.48;39.17;;;5.90;99.90;;;;;;5095776;28;20301;-77
2021/10/29 00:19:14;;;;;;;197.38;37.22;;;6.00;99.90;;;;;;5095089;28;20212;-77
2021/10/29 00:21:41;;;;;;;147.32;34.05;;;6.00;99.90;;;;;;5096551;28;20198;-77
2021/10/29 00:24:08;;;;;;;127.68;32.45;;;6.00;99.90;;;;;;5097203;28;20228;-77
2021/10/29 00:26:35;;;;;;;48.78;28.42;;;5.90;99.90;;;;;;5096415;28;20300;-76
2021/10/29 00:29:02;;;;;;;56.20;29.77;;;5.90;99.90;;;;;;5105609;28;20215;-77
2021/10/29 00:31:29;;;;;;;106.63;32.17;;;5.90;99.90;;;;;;5098702;28;20320;-76
2021/10/29 00:33:57;;;;;;;91.32;30.85;;;5.80;99.90;;;;;;5090589;28;20320;-76
2021/10/29 00:36:24;;;;;;;84.20;33.22;;;5.80;99.90;;;;;;5080365;28;20296;-78
2021/10/29 00:38:50;;;;;;;98.07;31.73;;;5.80;99.90;;;;;;5084094;28;20559;-77
2021/10/29 00:41:17;;;;;;;144.05;38.85;;;5.80;99.90;;;;;;5106172;28;20575;-77
2021/10/29 00:43:44;;;;;;;116.43;34.55;;;5.90;99.90;;;;;;5105429;28;20221;-77
2021/10/29 00:46:11;;;;;;;52.72;27.75;;;5.80;99.90;;;;;;5106652;28;20575;-77
2021/10/29 00:48:38;;;;;;;106.70;32.88;;;5.80;99.90;;;;;;5111679;28;20216;-77
2021/10/29 00:51:06;;;;;;;115.80;35.35;;;5.90;99.90;;;;;;5109292;28;20201;-78
2021/10/29 00:53:34;;;;;;;106.28;33.15;;;5.90;99.90;;;;;;5107141;28;20256;-78
2021/10/29 00:56:00;;;;;;;48.25;27.38;;;5.90;99.90;;;;;;5101432;28;20242;-77
2021/10/29 00:58:27;;;;;;;98.53;33.40;;;5.80;99.90;;;;;;5099124;28;20201;-79
2021/10/29 01:00:54;;;;;;;58.60;29.40;;;5.80;99.90;;;;;;5096807;28;20744;-76
2021/10/29 01:03:21;;;;;;;66.80;28.27;;;5.90;99.90;;;;;;5095330;28;20198;-76
2021/10/29 01:05:48;;;;;;;89.53;31.17;;;6.00;99.90;;;;;;5094757;28;20580;-77
2021/10/29 01:08:16;;;;;;;59.25;29.67;;;5.90;99.90;;;;;;5094492;28;20207;-77
2021/10/29 01:10:43;;;;;;;82.50;30.50;;;5.90;99.90;;;;;;5074273;28;20252;-77
2021/10/29 01:13:10;;;;;;;79.72;29.60;;;6.00;99.90;;;;;;5073613;28;20231;-76
2021/10/29 01:15:37;;;;;;;79.60;27.95;;;6.00;99.90;;;;;;5074602;28;20212;-77
2021/10/29 01:18:04;;;;;;;60.15;27.10;;;6.00;99.90;;;;;;5074605;28;20623;-76
2021/10/29 01:20:32;;;;;;;46.55;26.80;;;5.90;99.90;;;;;;5074151;28;20205;-77
2021/10/29 01:22:59;;;;;;;75.07;29.80;;;5.90;99.90;;;;;;5074113;28;20259;-77
2021/10/29 01:25:27;;;;;;;90.93;31.10;;;5.80;99.90;;;;;;5073582;28;20761;-76
2021/10/29 01:27:53;;;;;;;77.20;30.23;;;5.60;99.90;;;;;;5073820;28;20213;-77
2021/10/29 01:30:20;;;;;;;103.53;31.88;;;5.50;99.90;;;;;;5073107;28;20305;-77
2021/10/29 01:32:48;;;;;;;117.78;34.90;;;5.50;99.90;;;;;;5073629;28;20316;-76
2021/10/29 01:35:16;;;;;;;72.43;32.00;;;5.50;99.90;;;;;;5073608;28;20244;-77
2021/10/29 01:37:45;;;;;;;65.72;29.77;;;5.40;99.90;;;;;;5073218;28;20681;-77
2021/10/29 01:40:14;;;;;;;76.97;31.73;;;5.40;99.90;;;;;;5073765;28;20225;-76
2021/10/29 01:42:41;;;;;;;79.10;31.38;;;5.40;99.90;;;;;;5073732;28;20205;-77
2021/10/29 01:45:09;;;;;;;65.35;29.70;;;5.50;99.90;;;;;;5073844;28;20233;-76
2021/10/29 01:47:36;;;;;;;58.72;29.92;;;5.50;99.90;;;;;;5073692;28;20205;-77
2021/10/29 01:50:05;;;;;;;70.70;30.85;;;5.70;99.90;;;;;;5073527;28;20240;-78
2021/10/29 01:52:31;;;;;;;53.55;28.27;;;5.70;99.90;;;;;;5074045;28;20675;-77
2021/10/29 01:55:00;;;;;;;146.32;34.35;;;5.80;99.90;;;;;;5074609;28;20236;-77
2021/10/29 01:57:27;;;;;;;112.78;30.90;;;5.80;99.90;;;;;;5073989;28;20237;-77
2021/10/29 01:59:53;;;;;;;153.32;33.88;;;5.80;99.90;;;;;;5074902;28;20286;-77
2021/10/29 02:02:20;;;;;;;57.17;28.98;;;5.80;99.90;;;;;;5075077;28;20225;-77
2021/10/29 02:04:47;;;;;;;45.75;26.42;;;5.70;99.90;;;;;;5073275;28;20706;-77
2021/10/29 02:07:14;;;;;;;84.53;33.08;;;5.80;99.90;;;;;;5073282;28;20234;-77
2021/10/29 02:09:41;;;;;;;98.15;34.35;;;5.80;99.90;;;;;;5073798;28;20741;-78
2021/10/29 02:12:10;;;;;;;62.63;31.67;;;5.60;99.90;;;;;;5073039;28;20232;-76
2021/10/29 02:14:36;;;;;;;59.67;27.90;;;5.60;99.90;;;;;;5072641;28;20309;-76
2021/10/29 02:17:04;;;;;;;61.03;28.90;;;5.70;99.90;;;;;;5073471;28;20205;-77
2021/10/29 02:19:30;;;;;;;84.25;32.72;;;5.60;99.90;;;;;;5073236;28;20212;-76
2021/10/29 02:21:58;;;;;;;65.78;31.58;;;5.50;99.90;;;;;;5073591;28;20677;-76
2021/10/29 02:24:24;;;;;;;55.08;28.48;;;5.50;99.90;;;;;;5075185;28;20255;-76
2021/10/29 02:26:51;;;;;;;115.43;34.50;;;5.60;99.90;;;;;;5077565;28;20288;-76
2021/10/29 02:29:20;;;;;;;123.45;33.38;;;5.60;99.90;;;;;;5078703;28;20210;-76
2021/10/29 02:31:46;;;;;;;74.20;32.83;;;5.50;99.90;;;;;;5094280;28;20206;-76
2021/10/29 02:34:13;;;;;;;145.00;35.50;;;5.40;99.90;;;;;;5097170;28;20205;-76
2021/10/29 02:36:40;;;;;;;105.72;32.78;;;5.40;99.90;;;;;;5092677;28;20237;-76
2021/10/29 02:39:07;;;;;;;127.40;34.92;;;5.40;99.90;;;;;;5073106;28;20301;-76
2021/10/29 02:41:34;;;;;;;105.38;32.75;;;5.30;99.90;;;;;;5073321;28;20202;-77
2021/10/29 02:44:01;;;;;;;85.07;30.90;;;5.30;99.90;;;;;;5072598;28;20228;-77
2021/10/29 02:46:30;;;;;;;139.75;35.33;;;5.40;99.90;;;;;;5074515;28;20209;-76
2021/10/29 02:48:57;;;;;;;149.88;34.47;;;5.30;99.90;;;;;;5078208;28;20662;-78
2021/10/29 02:51:25;;;;;;;49.40;26.33;;;5.40;99.90;;;;;;5076642;28;20225;-76
2021/10/29 02:53:52;;;;;;;68.63;27.42;;;5.50;99.90;;;;;;5072833;28;20230;-76
2021/10/29 02:56:19;;;;;;;88.63;29.13;;;5.40;99.90;;;;;;5072351;28;20684;-76
2021/10/29 02:58:46;;;;;;;56.42;25.35;;;5.50;99.90;;;;;;5072332;28;20206;-76
2021/10/29 03:01:13;;;;;;;118.50;30.95;;;5.60;99.90;;;;;;5072648;28;20210;-76
2021/10/29 03:03:41;;;;;;;42.13;24.40;;;5.60;99.90;;;;;;5072519;28;20240;-76
2021/10/29 03:06:08;;;;;;;50.35;26.13;;;5.40;99.90;;;;;;5072563;28;20233;-77
2021/10/29 03:08:35;;;;;;;42.08;25.23;;;5.30;99.90;;;;;;5072609;28;20209;-77
2021/10/29 03:11:02;;;;;;;105.88;27.40;;;5.40;99.90;;;;;;5072627;28;20306;-77
2021/10/29 03:13:29;;;;;;;50.40;24.63;;;5.50;99.90;;;;;;5073071;28;20316;-77
2021/10/29 03:15:56;;;;;;;49.60;25.70;;;5.50;99.90;;;;;;5073352;28;20206;-77
2021/10/29 03:18:23;;;;;;;41.80;23.38;;;5.40;99.90;;;;;;5072893;28;20208;-77
2021/10/29 03:20:51;;;;;;;56.60;27.77;;;5.50;99.90;;;;;;5072479;28;20213;-77
2021/10/29 03:23:19;;;;;;;76.50;26.90;;;5.60;99.90;;;;;;5072283;28;20203;-77
2021/10/29 03:25:46;;;;;;;95.43;28.50;;;5.30;99.90;;;;;;5072620;28;20304;-77
2021/10/29 03:28:14;;;;;;;100.20;27.45;;;5.20;99.90;;;;;;5072542;28;20302;-77
2021/10/29 03:30:42;;;;;;;55.13;23.95;;;5.10;99.90;;;;;;5072224;28;20218;-77
2021/10/29 03:33:09;;;;;;;46.67;25.13;;;5.10;99.90;;;;;;5072467;28;20294;-77
2021/10/29 03:35:36;;;;;;;49.35;26.33;;;5.20;99.90;;;;;;5072578;28;20257;-77
2021/10/29 03:40:51;;;;;;;65.60;24.52;;;5.30;99.90;;;;;;5073783;28;20291;-77
2021/10/29 03:43:23;;;;;;;71.25;27.42;;;5.30;99.90;;;;;;5076106;28;20657;-77
2021/10/29 03:45:52;;;;;;;51.85;26.30;;;5.30;99.90;;;;;;5076062;28;20216;-77
2021/10/29 03:48:24;;;;;;;47.45;24.05;;;5.30;99.90;;;;;;5075985;28;20240;-77
2021/10/29 03:51:01;;;;;;;38.75;22.98;;;5.30;99.90;;;;;;5076655;28;20229;-77
2021/10/29 03:53:35;;;;;;;53.28;24.92;;;5.30;99.90;;;;;;5076127;28;20239;-77
2021/10/29 03:56:03;;;;;;;75.82;24.98;;;5.30;99.90;;;;;;5076842;28;20190;-78
2021/10/29 03:58:30;;;;;;;44.42;22.88;;;5.20;99.90;;;;;;5076132;28;20210;-77
2021/10/29 04:00:57;;;;;;;42.88;20.92;;;5.30;99.90;;;;;;5077892;28;20291;-77
2021/10/29 04:03:24;;;;;;;87.25;25.60;;;5.30;99.90;;;;;;5084592;28;20202;-79
2021/10/29 04:05:51;;;;;;;37.40;20.13;;;5.30;99.90;;;;;;5081239;28;20206;-77
2021/10/29 04:08:17;;;;;;;67.22;22.10;;;5.30;99.90;;;;;;5091793;28;20205;-79
2021/10/29 04:10:46;;;;;;;72.95;23.15;;;5.30;99.90;;;;;;5098655;28;20301;-77
2021/10/29 04:13:13;;;;;;;118.95;24.65;;;5.20;99.90;;;;;;5088016;28;20225;-77
2021/10/29 04:15:41;;;;;;;119.05;28.77;;;5.10;99.90;;;;;;5077207;28;20210;-77
2021/10/29 04:18:08;;;;;;;65.22;23.70;;;5.00;99.90;;;;;;5076448;28;20263;-77
2021/10/29 04:20:35;;;;;;;60.50;22.75;;;4.90;99.90;;;;;;5076553;28;20616;-77
2021/10/29 04:23:03;;;;;;;96.22;25.15;;;5.00;99.90;;;;;;5076600;28;20194;-77
2021/10/29 04:25:30;;;;;;;38.75;24.05;;;4.80;99.90;;;;;;5077517;28;20749;-78
2021/10/29 04:27:59;;;;;;;38.35;19.65;;;4.90;99.90;;;;;;5078067;28;20209;-77
2021/10/29 04:30:29;;;;;;;45.97;22.83;;;4.90;99.90;;;;;;5078896;28;20218;-77
2021/10/29 04:32:56;;;;;;;43.80;23.88;;;5.00;99.90;;;;;;5082615;28;20253;-77
2021/10/29 04:35:23;;;;;;;38.92;22.40;;;5.00;99.90;;;;;;5078024;28;20230;-77
2021/10/29 04:37:51;;;;;;;57.28;23.33;;;5.00;99.90;;;;;;5084367;28;20212;-76
2021/10/29 04:40:18;;;;;;;64.63;24.00;;;4.80;99.90;;;;;;5084043;28;20217;-77
2021/10/29 04:42:45;;;;;;;62.90;24.42;;;4.70;99.90;;;;;;5085087;28;20205;-76
2021/10/29 04:45:13;;;;;;;51.10;22.83;;;4.70;99.90;;;;;;5086698;28;20581;-76
2021/10/29 04:47:40;;;;;;;74.30;23.30;;;4.60;99.90;;;;;;5085432;28;20269;-76
2021/10/29 04:50:08;;;;;;;99.63;26.10;;;4.50;99.90;;;;;;5093145;28;20221;-77
2021/10/29 04:52:35;;;;;;;71.15;22.17;;;4.50;99.90;;;;;;5096030;28;20220;-77
2021/10/29 04:55:02;;;;;;;74.03;24.48;;;4.60;99.90;;;;;;5092684;28;20229;-77
2021/10/29 04:57:29;;;;;;;51.72;23.35;;;4.60;99.90;;;;;;5084697;28;20575;-76
2021/10/29 04:59:57;;;;;;;94.63;25.23;;;4.50;99.90;;;;;;5084242;28;20210;-77
2021/10/29 05:02:25;;;;;;;113.72;27.38;;;4.50;99.90;;;;;;5086524;28;20206;-75
2021/10/29 05:04:52;;;;;;;43.10;20.17;;;4.50;99.90;;;;;;5076295;28;20825;-76
2021/10/29 05:07:19;;;;;;;139.63;25.08;;;4.60;99.90;;;;;;5074449;28;20308;-77
2021/10/29 05:09:46;;;;;;;151.02;26.92;;;4.60;99.90;;;;;;5074234;28;20305;-76
2021/10/29 05:12:13;;;;;;;93.10;21.35;;;4.60;99.90;;;;;;5074756;28;20221;-77
2021/10/29 05:14:40;;;;;;;36.70;18.38;;;4.50;99.90;;;;;;5074112;28;20393;-77
2021/10/29 05:17:06;;;;;;;42.80;19.10;;;4.40;99.90;;;;;;5074234;28;20708;-77
2021/10/29 05:19:35;;;;;;;58.33;20.08;;;4.30;99.90;;;;;;5073347;28;20599;-77
2021/10/29 05:22:01;;;;;;;92.95;20.75;;;4.30;99.90;;;;;;5074393;28;20300;-77
2021/10/29 05:24:28;;;;;;;43.67;17.00;;;4.40;99.90;;;;;;5073597;28;20712;-78
2021/10/29 05:26:55;;;;;;;89.63;19.52;;;4.30;99.90;;;;;;5074460;28;20212;-79
2021/10/29 05:29:22;;;;;;;86.95;20.17;;;4.30;99.90;;;;;;5074239;28;20221;-76
2021/10/29 05:31:50;;;;;;;72.47;17.45;;;4.30;99.90;;;;;;5074272;28;20302;-76
2021/10/29 05:34:17;;;;;;;32.17;16.70;;;4.20;99.90;;;;;;5073655;28;20229;-76
2021/10/29 05:36:47;;;;;;;47.85;16.67;;;4.10;99.90;;;;;;5074537;28;20232;-76
2021/10/29 05:39:15;;;;;;;24.15;14.75;;;4.00;99.90;;;;;;5074040;28;20237;-76
2021/10/29 05:41:47;;;;;;;43.10;17.10;;;4.00;99.90;;;;;;5074590;28;20201;-76
2021/10/29 05:44:14;;;;;;;34.70;17.40;;;4.00;99.90;;;;;;5074373;28;20781;-76
2021/10/29 05:46:43;;;;;;;45.17;19.23;;;3.90;99.90;;;;;;5075246;28;20619;-76
2021/10/29 05:49:12;;;;;;;29.15;16.98;;;3.90;99.90;;;;;;5083124;28;20703;-77
2021/10/29 05:51:43;;;;;;;45.05;18.48;;;3.80;99.90;;;;;;5104218;28;20205;-76
2021/10/29 05:54:14;;;;;;;31.40;18.02;;;3.80;99.90;;;;;;5101858;28;20233;-77
2021/10/29 05:56:41;;;;;;;29.90;18.15;;;3.80;99.90;;;;;;5094818;28;20182;-75
2021/10/29 05:59:08;;;;;;;39.35;18.85;;;3.90;99.90;;;;;;5076802;28;20206;-76
2021/10/29 06:01:35;;;;;;;49.50;18.63;;;3.80;99.90;;;;;;5074136;28;20206;-75
2021/10/29 06:04:02;;;;;;;30.42;19.08;;;3.70;99.90;;;;;;5073790;28;20241;-74
2021/10/29 06:06:29;;;;;;;56.65;20.08;;;3.70;99.90;;;;;;5074278;28;20292;-75
2021/10/29 06:08:56;;;;;;;29.67;18.63;;;3.70;99.90;;;;;;5073597;28;20270;-75
2021/10/29 06:11:26;;;;;;;28.88;20.15;;;3.70;99.90;;;;;;5075291;28;20202;-76
2021/10/29 06:13:57;;;;;;;30.15;19.73;;;3.80;99.90;;;;;;5094480;28;20224;-77
2021/10/29 06:16:24;;;;;;;40.95;19.90;;;3.80;99.90;;;;;;5094994;28;20204;-76
2021/10/29 06:18:52;;;;;;;33.75;20.23;;;3.90;99.90;;;;;;5075275;28;20209;-75
2021/10/29 06:21:28;;;;;;;34.13;19.77;;;3.90;99.90;;;;;;5080964;28;20719;-75
2021/10/29 06:23:59;;;;;;;42.67;19.55;;;4.00;99.90;;;;;;5094041;28;20656;-75
2021/10/29 06:26:38;;;;;;;49.47;22.40;;;4.00;99.90;;;;;;5074369;28;20213;-77
2021/10/29 06:29:05;;;;;;;34.55;21.55;;;3.90;99.90;;;;;;5073600;28;20314;-76
2021/10/29 06:31:32;;;;;;;40.75;20.83;;;4.00;99.90;;;;;;5073404;28;20202;-76
2021/10/29 06:33:59;;;;;;;87.15;25.30;;;4.10;99.90;;;;;;5074173;28;20312;-76
2021/10/29 06:36:26;;;;;;;42.35;21.70;;;4.10;99.90;;;;;;5092322;28;20235;-76
2021/10/29 06:38:53;;;;;;;56.30;20.70;;;4.10;99.90;;;;;;5093371;28;20608;-77
2021/10/29 06:41:20;;;;;;;32.63;20.17;;;4.10;99.90;;;;;;5078234;28;20209;-79
2021/10/29 06:44:00;;;;;;;56.67;23.30;;;4.00;99.90;;;;;;5072349;28;20233;-75
2021/10/29 06:46:35;;;;;;;46.33;24.38;;;4.00;99.90;;;;;;5073895;28;20205;-75
2021/10/29 06:49:15;;;;;;;43.67;22.50;;;4.00;99.90;;;;;;5074249;28;20189;-75
2021/10/29 06:52:09;;;;;;;82.53;23.17;;;4.00;99.90;;;;;;5075099;28;20628;-76
2021/10/29 07:00:21;;;;;;;64.43;24.88;;;3.90;99.90;;;;;;5092341;28;20197;-76
2021/10/29 07:03:15;;;;;;;72.22;25.30;;;3.90;99.90;;;;;;5095148;28;20201;-78
2021/10/29 07:41:22;;;;;;;67.60;30.35;;;4.20;99.90;;;;;;5099657;28;20216;-73
2021/10/29 07:43:50;;;;;;;46.22;28.45;;;4.30;99.90;;;;;;5090751;28;20206;-76
2021/10/29 07:46:17;;;;;;;46.17;28.33;;;4.30;99.90;;;;;;5079221;28;20209;-74
2021/10/29 07:48:46;;;;;;;48.20;28.00;;;4.50;99.90;;;;;;5078204;28;20223;-74
2021/10/29 07:51:14;;;;;;;47.22;29.58;;;4.50;99.90;;;;;;5078589;28;20708;-77
2021/10/29 07:53:41;;;;;;;47.67;27.20;;;4.50;99.90;;;;;;5082061;28;20236;-75
2021/10/29 07:56:08;;;;;;;43.05;27.67;;;4.40;99.90;;;;;;5085267;28;20209;-76
2021/10/29 07:58:36;;;;;;;51.45;29.02;;;4.50;99.90;;;;;;5085356;28;20643;-75
2021/10/29 08:01:04;;;;;;;46.40;27.88;;;4.50;99.90;;;;;;5078737;28;20233;-75
2021/10/29 08:03:32;;;;;;;43.78;28.33;;;4.50;99.90;;;;;;5079152;28;20610;-75
2021/10/29 08:06:00;;;;;;;41.85;27.65;;;4.40;99.90;;;;;;5078794;28;20220;-76
2021/10/29 08:08:27;;;;;;;41.03;26.40;;;4.40;99.90;;;;;;5078567;28;20206;-77
2021/10/29 08:10:54;;;;;;;33.63;25.23;;;4.70;99.90;;;;;;5079176;28;20233;-75
2021/10/29 08:13:21;;;;;;;37.92;25.85;;;4.80;99.90;;;;;;5079783;28;20214;-74
2021/10/29 08:15:53;;;;;;;36.90;25.10;;;4.90;99.90;;;;;;5097336;28;20668;-78
2021/10/29 08:18:20;;;;;;;36.40;24.30;;;4.90;99.90;;;;;;5104254;28;20212;-74
2021/10/29 08:20:47;;;;;;;37.22;24.77;;;4.90;99.90;;;;;;5100133;28;20220;-74
2021/10/29 08:23:16;;;;;;;32.92;23.55;;;4.90;99.90;;;;;;5099361;28;20205;-74
2021/10/29 08:25:43;;;;;;;30.25;21.63;;;5.00;99.90;;;;;;5097136;28;20649;-73
2021/10/29 08:28:10;;;;;;;28.80;22.15;;;5.10;99.90;;;;;;5091708;28;20733;-73
2021/10/29 08:30:37;;;;;;;25.50;20.23;;;5.10;99.90;;;;;;5088751;28;20247;-78
2021/10/29 08:33:05;;;;;;;31.27;22.17;;;5.10;99.90;;;;;;5108310;28;20276;-74
2021/10/29 08:35:31;;;;;;;23.83;18.73;;;5.30;99.90;;;;;;5106779;28;20249;-74
2021/10/29 08:37:58;;;;;;;23.25;18.30;;;5.50;99.90;;;;;;5106252;28;20213;-74
2021/10/29 08:40:28;;;;;;;21.63;18.00;;;5.70;99.90;;;;;;5102823;28;20622;-75
2021/10/29 08:42:55;;;;;;;20.73;16.30;;;6.00;99.90;;;;;;5105844;28;20621;-76
2021/10/29 08:45:22;;;;;;;19.20;15.98;;;6.10;99.90;;;;;;5099686;28;20204;-74
2021/10/29 08:47:49;;;;;;;20.20;16.08;;;6.30;99.90;;;;;;5096763;28;20204;-75
2021/10/29 08:50:18;;;;;;;17.25;13.90;;;6.40;99.90;;;;;;5094544;28;20222;-78
2021/10/29 08:52:48;;;;;;;19.02;14.82;;;6.50;99.90;;;;;;5095655;28;20207;-78
2021/10/29 08:55:16;;;;;;;15.15;12.65;;;6.70;99.90;;;;;;5095781;28;20219;-76
2021/10/29 08:57:48;;;;;;;16.23;14.48;;;6.90;99.90;;;;;;5095279;28;20238;-75
2021/10/29 09:00:18;;;;;;;16.60;14.40;;;6.90;99.90;;;;;;5093568;28;20316;-74
2021/10/29 09:02:50;;;;;;;18.42;15.15;;;6.70;99.90;;;;;;5074637;28;20662;-76
2021/10/29 09:05:23;;;;;;;19.67;14.52;;;6.90;99.90;;;;;;5075268;28;20320;-74
2021/10/29 09:08:05;;;;;;;16.98;15.18;;;7.00;99.90;;;;;;5096930;28;20226;-74
2021/10/29 09:32:57;;;;;;;16.58;14.75;;;7.00;99.40;;;;;;5101808;28;20206;-76
2021/10/29 09:35:26;;;;;;;16.55;14.85;;;7.20;99.90;;;;;;5098446;28;20293;-77
2021/10/29 09:38:01;;;;;;;16.67;14.70;;;7.40;99.90;;;;;;5093058;28;20212;-77
2021/10/29 09:40:30;;;;;;;21.98;15.55;;;7.20;98.40;;;;;;5090408;28;20601;-77
2021/10/29 09:43:02;;;;;;;16.75;14.52;;;7.30;98.10;;;;;;5094309;28;20207;-78
2021/10/29 09:45:32;;;;;;;17.42;14.38;;;7.60;99.30;;;;;;5088568;28;20207;-77
2021/10/29 09:48:18;;;;;;;18.27;14.25;;;8.00;95.70;;;;;;5095628;28;20204;-76
2021/10/29 09:50:50;;;;;;;16.67;14.73;;;7.80;94.40;;;;;;5088781;28;20251;-76
2021/10/29 09:56:09;;;;;;;20.60;15.75;;;7.80;93.90;;;;;;5093218;28;20261;-76
2021/10/29 09:58:36;;;;;;;16.38;14.13;;;7.60;94.10;;;;;;5077121;28;20205;-75
2021/10/29 10:01:05;;;;;;;19.88;15.13;;;7.60;94.90;;;;;;5092873;28;20593;-76
2021/10/29 10:03:34;;;;;;;19.75;14.73;;;7.30;96.00;;;;;;5100075;28;20211;-76
2021/10/29 10:06:02;;;;;;;18.15;13.32;;;7.50;97.10;;;;;;5110209;28;20203;-76
2021/10/29 10:08:31;;;;;;;16.20;13.68;;;8.00;97.50;;;;;;5105627;28;20223;-76
2021/10/29 10:10:59;;;;;;;18.63;13.95;;;8.00;94.80;;;;;;5095767;28;20233;-80
2021/10/29 10:13:27;;;;;;;16.38;14.27;;;8.10;93.60;;;;;;5102014;28;20201;-74
2021/10/29 10:15:56;;;;;;;16.67;14.95;;;8.20;92.10;;;;;;5103245;28;20245;-76
2021/10/29 10:18:25;;;;;;;18.55;15.95;;;7.90;91.60;;;;;;5100313;28;20209;-73
2021/10/29 10:20:52;;;;;;;15.80;14.10;;;7.80;93.10;;;;;;5097497;28;20230;-75
2021/10/29 10:23:25;;;;;;;17.05;13.80;;;7.90;93.10;;;;;;5098522;28;20663;-76
2021/10/29 10:26:16;;;;;;;16.80;13.95;;;7.90;93.70;;;;;;5104092;28;20183;-77
2021/10/29 10:29:01;;;;;;;16.88;15.02;;;8.00;92.80;;;;;;5111591;28;20200;-79
2021/10/29 10:45:51;;;;;;;16.08;14.48;;;9.00;87.70;;;;;;5093421;28;20197;-77
2021/10/29 10:48:26;;;;;;;17.83;14.05;;;9.00;86.90;;;;;;5102523;28;20598;-76
2021/10/29 10:51:00;;;;;;;15.50;13.90;;;9.10;84.90;;;;;;5102122;28;20301;-77
2021/10/29 10:53:43;;;;;;;15.23;12.55;;;9.30;83.60;;;;;;5102915;28;20204;-77
2021/10/29 10:56:21;;;;;;;14.57;13.07;;;9.50;82.30;;;;;;5092342;28;20217;-76
2021/10/29 10:59:09;;;;;;;15.00;13.13;;;9.20;79.20;;;;;;5111259;28;20211;-74
2021/10/29 11:01:59;;;;;;;15.48;12.93;;;9.20;82.50;;;;;;5105206;28;20239;-78
2021/10/29 11:07:18;;;;;;;13.00;11.70;;;9.80;79.40;;;;;;5099606;28;20254;-77
2021/10/29 11:09:57;;;;;;;12.18;11.07;;;10.10;77.40;;;;;;5102226;28;20197;-77
2021/10/29 11:12:26;;;;;;;14.25;12.85;;;10.20;74.80;;;;;;5101945;28;20228;-76
2021/10/29 11:15:07;;;;;;;12.15;10.85;;;10.30;73.60;;;;;;5083113;28;20275;-77
2021/10/29 11:17:46;;;;;;;15.23;12.68;;;10.50;72.60;;;;;;5082662;28;20201;-78
2021/10/29 11:20:44;;;;;;;16.30;12.63;;;10.60;70.30;;;;;;5100535;28;20212;-77
2021/10/29 11:23:17;;;;;;;16.23;12.98;;;10.70;68.20;;;;;;5102228;28;20193;-74
2021/10/29 11:25:49;;;;;;;14.90;13.05;;;10.80;68.30;;;;;;5082639;28;20289;-76
2021/10/29 11:28:17;;;;;;;15.40;13.88;;;10.70;68.20;;;;;;5085048;28;20648;-77
2021/10/29 11:30:46;;;;;;;16.83;13.07;;;10.70;68.30;;;;;;5099662;28;20603;-76
2021/10/29 11:33:15;;;;;;;15.77;12.75;;;10.70;68.20;;;;;;5102730;28;20813;-77
2021/10/29 11:35:53;;;;;;;14.05;12.40;;;10.80;68.30;;;;;;5107223;28;20224;-75
2021/10/29 11:38:23;;;;;;;14.77;12.30;;;10.90;68.40;;;;;;5109666;28;20205;-76
2021/10/29 11:40:51;;;;;;;14.60;12.70;;;11.00;68.00;;;;;;5106512;28;20308;-76
2021/10/29 11:43:22;;;;;;;19.02;14.85;;;11.20;66.80;;;;;;5104707;28;20251;-76
2021/10/29 11:45:49;;;;;;;16.55;14.20;;;11.30;66.10;;;;;;5107073;28;20226;-75
2021/10/29 11:48:17;;;;;;;16.95;14.38;;;11.40;65.10;;;;;;5107558;28;20189;-75
2021/10/29 11:50:45;;;;;;;16.60;13.45;;;11.40;64.40;;;;;;5105185;28;20256;-75
2021/10/29 11:53:13;;;;;;;16.10;14.43;;;11.40;64.40;;;;;;5108316;28;20220;-75
2021/10/29 11:55:46;;;;;;;16.63;14.00;;;11.40;64.40;;;;;;5101282;28;20252;-74
2021/10/29 11:58:20;;;;;;;17.17;15.02;;;11.40;64.90;;;;;;5105947;28;20202;-76
2021/10/29 12:01:07;;;;;;;17.10;14.07;;;11.50;64.80;;;;;;5103276;28;20244;-77
2021/10/29 12:09:05;;;;;;;15.88;13.80;;;11.80;63.00;;;;;;5096184;28;20659;-75
2021/10/29 12:11:36;;;;;;;17.33;13.77;;;11.70;62.80;;;;;;5096789;28;20238;-76
2021/10/29 12:14:03;;;;;;;17.08;14.32;;;11.70;62.80;;;;;;5104057;28;20263;-75
2021/10/29 12:16:33;;;;;;;18.27;13.63;;;11.80;63.00;;;;;;5096286;28;20225;-77
2021/10/29 12:19:03;;;;;;;16.65;14.50;;;11.90;62.80;;;;;;5098629;28;20209;-76
2021/10/29 12:21:34;;;;;;;14.70;12.80;;;12.10;61.70;;;;;;5103153;28;20734;-76
2021/10/29 12:24:05;;;;;;;15.07;13.48;;;12.20;61.90;;;;;;5096529;28;20210;-77
2021/10/29 12:26:38;;;;;;;14.88;12.80;;;12.30;60.70;;;;;;5103554;28;20207;-77
2021/10/29 12:29:12;;;;;;;16.20;13.40;;;12.40;60.80;;;;;;5111669;28;20213;-76
2021/10/29 12:31:50;;;;;;;15.85;13.80;;;12.40;60.80;;;;;;5112869;28;20262;-77
2021/10/29 12:34:46;;;;;;;16.90;13.93;;;12.40;60.80;;;;;;5119146;28;20278;-76
2021/10/29 12:37:42;;;;;;;18.40;14.10;;;12.40;59.60;;;;;;5109317;28;20222;-77
2021/10/29 12:52:11;;;;;;;15.40;12.90;;;12.20;60.70;;;;;;5098876;28;20289;-74
2021/10/29 13:03:04;;;;;;;16.10;14.20;;;12.30;60.70;;;;;;5098496;28;20297;-76
2021/10/29 13:05:30;;;;;;;15.82;13.00;;;12.30;60.70;;;;;;5100668;28;20214;-78
2021/10/29 13:07:57;;;;;;;15.07;13.38;;;12.50;61.50;;;;;;5100196;28;20277;-77
2021/10/29 13:13:07;;;;;;;18.90;14.85;;;12.60;61.00;;;;;;5077025;28;20215;-77
2021/10/29 13:15:36;;;;;;;20.20;14.70;;;12.70;61.10;;;;;;5074073;28;20694;-77
2021/10/29 13:18:06;;;;;;;16.30;14.10;;;12.80;60.40;;;;;;5075650;28;20205;-76
2021/10/29 13:23:50;;;;;;;15.95;14.30;;;12.70;60.30;;;;;;5049141;28;20205;-74
2021/10/29 13:29:11;;;;;;;15.52;12.73;;;12.40;60.80;;;;;;5073216;28;20290;-77
2021/10/29 13:34:44;;;;;;;20.95;14.82;;;12.40;60.90;;;;;;5074522;28;20253;-78
2021/10/29 13:37:17;;;;;;;15.77;13.55;;;12.40;60.80;;;;;;5074079;28;20214;-76
2021/10/29 13:53:29;;;;;;;14.85;12.80;;;12.40;62.00;;;;;;5076647;28;20209;-74
2021/10/29 13:56:07;;;;;;;19.08;12.95;;;12.40;63.00;;;;;;5083937;28;20236;-75
2021/10/29 14:31:47;;;;;;;16.98;14.23;;;12.90;64.40;;;;;;5077055;28;20242;-79
2021/10/29 14:34:16;;;;;;;18.95;14.65;;;13.00;63.70;;;;;;5087459;28;20216;-77
2021/10/29 14:36:50;;;;;;;16.38;13.00;;;13.00;63.70;;;;;;5090300;28;20229;-77
2021/10/29 14:39:23;;;;;;;14.70;13.25;;;13.00;64.20;;;;;;5085060;28;20256;-77
2021/10/29 14:41:58;;;;;;;14.70;13.20;;;13.10;64.10;;;;;;5074922;28;20229;-76
2021/10/29 14:44:30;;;;;;;15.63;13.93;;;13.20;64.10;;;;;;5067510;28;20205;-78
2021/10/29 14:47:05;;;;;;;16.98;14.20;;;13.30;63.10;;;;;;5081870;28;20205;-76
2021/10/29 14:49:50;;;;;;;17.25;15.10;;;13.30;62.90;;;;;;5079376;28;20208;-79
2021/10/29 14:52:49;;;;;;;16.70;14.70;;;13.40;63.00;;;;;;5080388;28;20777;-79
2021/10/29 15:03:52;;;;;;;16.48;13.50;;;13.40;65.60;;;;;;5075460;28;20209;-80
2021/10/29 15:15:21;;;;;;;12.60;11.30;;;13.50;65.50;;;;;;5079629;28;20260;-77
2021/10/29 15:29:02;;;;;;;18.08;13.98;;;13.30;71.80;;;;;;5077996;28;20211;-78
2021/10/29 15:31:54;;;;;;;14.00;12.30;;;13.20;72.70;;;;;;5094300;28;20222;-77
2021/10/29 15:42:48;;;;;;;14.32;12.50;;;13.20;74.90;;;;;;5095802;28;20267;-78
2021/10/29 15:45:19;;;;;;;13.35;12.02;;;13.10;75.20;;;;;;5094481;28;20212;-77
2021/10/29 15:47:49;;;;;;;14.02;12.63;;;13.00;75.70;;;;;;5093014;28;20275;-80
2021/10/29 15:50:18;;;;;;;13.27;11.98;;;13.00;76.70;;;;;;5091663;28;20318;-78
2021/10/29 15:52:51;;;;;;;13.10;11.70;;;12.90;76.90;;;;;;5085152;28;20228;-79
2021/10/29 15:55:24;;;;;;;14.25;12.43;;;12.90;78.50;;;;;;5083459;28;20653;-78
2021/10/29 15:58:06;;;;;;;12.52;11.32;;;12.80;78.80;;;;;;5080565;28;20537;-77
2021/10/29 16:00:47;;;;;;;15.00;13.07;;;12.70;80.10;;;;;;5080055;28;20238;-80
2021/10/29 16:03:17;;;;;;;15.65;14.05;;;12.50;81.10;;;;;;5087963;28;20270;-79
2021/10/29 16:19:30;;;;;;;25.40;20.23;;;11.00;90.40;;;;;;5087208;28;20207;-79
2021/10/29 16:21:57;;;;;;;28.40;22.55;;;10.90;91.60;;;;;;5086275;28;20264;-79
2021/10/29 16:24:24;;;;;;;30.08;23.40;;;10.70;92.90;;;;;;5086696;28;20209;-78
2021/10/29 16:26:52;;;;;;;35.03;25.23;;;10.50;93.30;;;;;;5085580;28;20231;-78
2021/10/29 16:29:23;;;;;;;34.08;24.45;;;10.40;94.80;;;;;;5079847;28;20248;-80